createdAt,value
2023-03-12T00:01:17.188Z,53.42
2023-03-12T00:03:44.868Z,53.62
2023-03-12T00:06:12.675Z,53.47
2023-03-12T00:08:40.459Z,53.49
2023-03-12T00:11:09.986Z,53.42
2023-03-12T00:13:37.678Z,53.43
2023-03-12T00:16:10.768Z,52.57
2023-03-12T00:18:38.136Z,53.85
2023-03-12T00:21:06.389Z,53.53
2023-03-12T00:23:33.556Z,53.85
2023-03-12T00:26:08.836Z,53.90
2023-03-12T00:28:36.407Z,53.45
2023-03-12T00:31:13.175Z,53.59
2023-03-12T00:33:40.259Z,54.09
2023-03-12T00:36:08.033Z,54.82
2023-03-12T00:38:35.206Z,53.97
2023-03-12T00:41:02.593Z,53.57
2023-03-12T00:43:29.640Z,53.64
2023-03-12T00:45:56.849Z,54.82
2023-03-12T00:48:24.012Z,54.09
2023-03-12T00:50:51.201Z,53.94
2023-03-12T00:53:18.327Z,53.87
2023-03-12T00:55:45.625Z,54.26
2023-03-12T00:58:12.883Z,54.40
2023-03-12T01:00:40.152Z,54.78
2023-03-12T01:03:07.658Z,55.04
2023-03-12T01:05:37.969Z,54.71
2023-03-12T01:08:05.681Z,54.81
2023-03-12T01:10:33.056Z,54.65
2023-03-12T01:13:00.237Z,54.94
2023-03-12T01:15:27.864Z,55.65
2023-03-12T01:17:54.997Z,55.14
2023-03-12T01:20:23.304Z,55.82
2023-03-12T01:22:51.562Z,55.59
2023-03-12T01:25:18.883Z,55.80
2023-03-12T01:27:46.361Z,54.92
2023-03-12T01:30:14.450Z,54.01
2023-03-12T01:32:41.940Z,54.42
2023-03-12T01:35:09.594Z,54.21
2023-03-12T01:37:36.649Z,54.98
2023-03-12T01:40:04.618Z,54.70
2023-03-12T01:42:31.799Z,55.21
2023-03-12T01:45:01.548Z,54.67
2023-03-12T01:47:32.147Z,54.22
2023-03-12T01:50:01.623Z,54.31
2023-03-12T01:52:38.401Z,54.75
2023-03-12T01:55:16.467Z,54.38
2023-03-12T01:57:55.308Z,55.96
2023-03-12T02:00:26.057Z,56.92
2023-03-12T02:03:02.224Z,57.10
2023-03-12T02:05:56.812Z,57.42
2023-03-12T02:08:24.757Z,58.09
2023-03-12T02:10:51.891Z,58.11
2023-03-12T02:13:19.297Z,58.58
2023-03-12T02:15:48.234Z,59.15
2023-03-12T02:18:21.598Z,58.97
2023-03-12T02:20:59.113Z,59.54
2023-03-12T02:23:36.124Z,59.85
2023-03-12T02:26:05.710Z,60.02
2023-03-12T02:28:42.482Z,59.70
2023-03-12T02:31:18.199Z,60.51
2023-03-12T02:33:45.382Z,60.68
2023-03-12T02:36:12.702Z,60.65
2023-03-12T02:38:49.801Z,61.00
2023-03-12T02:41:20.310Z,60.29
2023-03-12T02:44:05.652Z,60.60
2023-03-12T02:46:39.690Z,60.66
2023-03-12T02:49:06.857Z,61.09
2023-03-12T02:51:34.040Z,60.75
2023-03-12T02:54:01.253Z,61.13
2023-03-12T02:56:29.347Z,60.90
2023-03-12T02:58:56.413Z,61.24
2023-03-12T03:01:24.504Z,61.19
2023-03-12T03:03:51.821Z,61.21
2023-03-12T03:06:19.068Z,61.34
2023-03-12T03:08:46.193Z,61.03
2023-03-12T03:11:13.378Z,61.12
2023-03-12T03:13:41.101Z,60.86
2023-03-12T03:16:08.934Z,60.97
2023-03-12T03:18:36.057Z,60.88
2023-03-12T03:21:06.234Z,60.72
2023-03-12T03:23:34.945Z,60.52
2023-03-12T03:26:02.401Z,61.43
2023-03-12T03:28:30.532Z,62.12
2023-03-12T03:31:00.929Z,62.04
2023-03-12T03:33:34.674Z,62.39
2023-03-12T03:36:03.133Z,62.82
2023-03-12T03:38:34.822Z,62.26
2023-03-12T03:41:03.851Z,63.02
2023-03-12T03:43:33.269Z,63.61
2023-03-12T03:46:05.418Z,63.45
2023-03-12T03:48:36.429Z,63.65
2023-03-12T03:51:05.922Z,63.64
2023-03-12T03:53:35.409Z,63.97
2023-03-12T03:56:20.924Z,64.44
2023-03-12T03:58:50.401Z,64.07
2023-03-12T04:01:20.268Z,64.04
2023-03-12T04:03:48.468Z,63.64
2023-03-12T04:06:15.615Z,63.49
2023-03-12T04:08:43.027Z,63.66
2023-03-12T04:11:17.193Z,64.01
2023-03-12T04:13:44.951Z,63.61
2023-03-12T04:16:14.643Z,63.76
2023-03-12T04:18:43.156Z,64.26
2023-03-12T04:21:13.301Z,64.21
2023-03-12T04:23:41.469Z,64.56
2023-03-12T04:26:10.326Z,64.70
2023-03-12T04:28:38.106Z,64.63
2023-03-12T04:31:08.447Z,62.33
2023-03-12T04:33:43.134Z,60.46
2023-03-12T04:36:13.338Z,62.42
2023-03-12T04:38:43.484Z,62.48
2023-03-12T04:41:15.452Z,60.14
2023-03-12T04:43:53.684Z,59.67
2023-03-12T04:46:22.157Z,60.90
2023-03-12T04:48:49.298Z,60.28
2023-03-12T04:51:17.100Z,59.95
2023-03-12T04:53:44.498Z,59.58
2023-03-12T04:56:13.215Z,57.18
2023-03-12T04:58:41.756Z,53.96
2023-03-12T05:01:24.136Z,52.31
2023-03-12T05:03:51.829Z,49.81
2023-03-12T05:06:19.840Z,49.68
2023-03-12T05:08:48.105Z,50.86
2023-03-12T05:11:15.781Z,52.09
2023-03-12T05:13:43.334Z,50.58
2023-03-12T05:16:11.738Z,51.58
2023-03-12T05:18:39.795Z,49.48
2023-03-12T05:21:12.388Z,49.93
2023-03-12T05:23:42.628Z,51.10
2023-03-12T05:26:22.229Z,49.16
2023-03-12T05:28:50.636Z,47.33
2023-03-12T05:31:19.713Z,45.33
2023-03-12T05:33:47.476Z,44.23
2023-03-12T05:36:15.514Z,42.25
2023-03-12T05:38:45.329Z,43.92
2023-03-12T05:41:26.145Z,45.86
2023-03-12T05:43:57.976Z,49.51
2023-03-12T05:46:26.914Z,52.45
2023-03-12T05:48:54.739Z,53.35
2023-03-12T05:51:22.490Z,52.55
2023-03-12T05:53:49.758Z,50.37
2023-03-12T05:56:18.666Z,50.29
2023-03-12T05:58:48.888Z,48.60
2023-03-12T06:01:24.286Z,53.67
2023-03-12T06:03:52.711Z,53.17
2023-03-12T06:06:20.376Z,53.94
2023-03-12T06:08:47.880Z,54.02
2023-03-12T06:11:15.253Z,52.37
2023-03-12T06:13:42.825Z,53.20
2023-03-12T06:16:17.852Z,52.90
2023-03-12T06:18:45.139Z,50.90
2023-03-12T06:21:18.468Z,51.52
2023-03-12T06:23:47.385Z,51.34
2023-03-12T06:26:21.151Z,51.65
2023-03-12T06:28:49.375Z,51.72
2023-03-12T06:31:17.226Z,51.22
2023-03-12T06:33:44.489Z,51.54
2023-03-12T06:36:12.277Z,50.56
2023-03-12T06:38:39.898Z,50.88
2023-03-12T06:41:16.317Z,52.02
2023-03-12T06:43:44.670Z,51.62
2023-03-12T06:46:14.496Z,51.98
2023-03-12T06:48:41.862Z,51.84
2023-03-12T06:51:09.890Z,53.04
2023-03-12T06:53:38.828Z,53.26
2023-03-12T06:56:08.345Z,51.78
2023-03-12T06:58:35.431Z,50.71
2023-03-12T07:01:02.587Z,46.16
2023-03-12T07:03:29.775Z,46.21
2023-03-12T07:05:58.054Z,47.15
2023-03-12T07:08:26.205Z,50.06
2023-03-12T07:10:53.277Z,50.74
2023-03-12T07:13:20.357Z,50.23
2023-03-12T07:15:47.513Z,50.59
2023-03-12T07:18:14.880Z,50.02
2023-03-12T07:20:43.765Z,51.33
2023-03-12T07:23:11.652Z,49.62
2023-03-12T07:25:40.948Z,50.01
2023-03-12T07:28:09.357Z,50.91
2023-03-12T07:30:37.194Z,48.81
2023-03-12T07:33:07.100Z,49.74
2023-03-12T07:35:34.401Z,49.78
2023-03-12T07:38:02.776Z,49.39
2023-03-12T07:40:29.871Z,49.57
2023-03-12T07:42:57.305Z,48.27
2023-03-12T07:45:25.032Z,49.98
2023-03-12T07:47:52.453Z,50.41
2023-03-12T07:50:19.920Z,49.77
2023-03-12T07:52:47.245Z,49.95
2023-03-12T07:55:14.727Z,49.78
2023-03-12T07:57:42.189Z,50.03
2023-03-12T08:00:10.637Z,50.20
2023-03-12T08:02:41.084Z,48.65
2023-03-12T08:05:09.146Z,47.94
2023-03-12T08:07:36.438Z,48.52
2023-03-12T08:10:06.265Z,49.59
2023-03-12T08:12:33.570Z,48.93
2023-03-12T08:15:00.946Z,47.68
2023-03-12T08:17:28.007Z,48.79
2023-03-12T08:19:55.093Z,49.05
2023-03-12T08:22:22.353Z,48.46
2023-03-12T08:24:49.430Z,48.27
2023-03-12T08:27:16.584Z,48.87
2023-03-12T08:29:43.654Z,47.05
2023-03-12T08:32:11.101Z,48.03
2023-03-12T08:34:38.306Z,48.29
2023-03-12T08:37:06.266Z,48.67
2023-03-12T08:39:33.899Z,48.60
2023-03-12T08:42:01.119Z,48.82
2023-03-12T08:44:28.605Z,49.17
2023-03-12T08:46:55.928Z,49.00
2023-03-12T08:49:23.428Z,48.41
2023-03-12T08:51:53.724Z,48.74
2023-03-12T08:54:21.625Z,48.39
2023-03-12T08:56:52.932Z,48.64
2023-03-12T08:59:21.143Z,48.92
2023-03-12T09:01:48.702Z,49.04
2023-03-12T09:04:16.761Z,49.02
2023-03-12T09:06:44.520Z,47.47
2023-03-12T09:09:11.840Z,48.43
2023-03-12T09:11:42.659Z,47.85
2023-03-12T09:16:58.345Z,48.67
2023-03-12T09:19:25.502Z,47.76
2023-03-12T09:21:52.560Z,47.45
2023-03-12T09:24:19.934Z,47.63
2023-03-12T09:26:47.666Z,46.53
2023-03-12T09:29:14.720Z,45.97
2023-03-12T09:31:41.805Z,44.34
2023-03-12T09:34:08.850Z,44.82
2023-03-12T09:36:36.113Z,45.11
2023-03-12T09:39:03.857Z,45.39
2023-03-12T09:41:35.926Z,42.95
2023-03-12T09:44:08.130Z,41.84
2023-03-12T09:46:39.133Z,41.11
2023-03-12T09:49:16.153Z,41.12
2023-03-12T09:51:47.457Z,41.72
2023-03-12T09:54:23.788Z,44.32
2023-03-12T09:56:55.187Z,44.73
2023-03-12T09:59:22.907Z,44.05
2023-03-12T10:01:55.226Z,42.73
2023-03-12T10:05:05.184Z,43.75
2023-03-12T10:07:38.984Z,43.14
2023-03-12T10:10:24.388Z,43.84
2023-03-12T10:13:12.367Z,43.77
2023-03-12T10:16:05.751Z,42.28
2023-03-12T10:18:48.490Z,43.42
2023-03-12T10:21:29.625Z,43.87
2023-03-12T10:23:56.633Z,42.66
2023-03-12T10:26:25.783Z,42.88
2023-03-12T10:29:04.028Z,41.33
2023-03-12T10:32:04.767Z,39.55
2023-03-12T10:34:39.357Z,42.33
2023-03-12T10:37:31.759Z,42.66
2023-03-12T10:40:01.062Z,41.40
2023-03-12T10:42:30.063Z,43.04
2023-03-12T10:45:20.285Z,43.09
2023-03-12T10:47:57.310Z,43.43
2023-03-12T10:50:27.784Z,42.93
2023-03-12T10:53:30.475Z,42.52
2023-03-12T10:56:06.397Z,41.98
2023-03-12T10:58:39.473Z,42.37
2023-03-12T11:01:21.290Z,42.25
2023-03-12T11:03:48.640Z,41.68
2023-03-12T11:06:30.689Z,43.03
2023-03-12T11:09:16.576Z,42.53
2023-03-12T11:11:47.729Z,42.36
2023-03-12T11:14:26.606Z,41.64
2023-03-12T11:16:55.251Z,41.06
2023-03-12T11:19:31.894Z,40.20
2023-03-12T11:22:05.573Z,40.27
2023-03-12T11:24:32.935Z,39.18
2023-03-12T11:27:07.988Z,38.97
2023-03-12T11:29:40.297Z,39.24
2023-03-12T11:32:30.196Z,39.46
2023-03-12T11:34:57.691Z,41.87
2023-03-12T11:37:34.604Z,41.63
2023-03-12T11:40:30.837Z,42.63
2023-03-12T11:43:29.244Z,42.44
2023-03-12T11:46:32.321Z,43.11
2023-03-12T11:49:11.397Z,40.71
2023-03-12T11:51:51.582Z,40.14
2023-03-12T11:54:50.725Z,39.39
2023-03-12T11:57:42.989Z,39.16
2023-03-12T12:00:20.600Z,41.02
2023-03-12T12:02:53.358Z,40.25
2023-03-12T12:05:42.012Z,39.85
2023-03-12T12:08:09.049Z,39.80
2023-03-12T12:10:42.422Z,40.06
2023-03-12T12:13:27.147Z,40.11
2023-03-12T12:16:18.318Z,40.85
2023-03-12T12:19:22.826Z,41.32
2023-03-12T12:21:49.815Z,40.55
2023-03-12T12:24:22.875Z,40.12
2023-03-12T12:26:53.708Z,40.35
2023-03-12T12:29:50.339Z,41.89
2023-03-12T12:32:38.048Z,41.61
2023-03-12T12:35:17.831Z,41.12
2023-03-12T12:37:50.356Z,41.02
2023-03-12T12:40:54.799Z,39.50
2023-03-12T12:43:24.430Z,41.88
2023-03-12T12:45:54.044Z,41.84
2023-03-12T12:48:27.316Z,40.90
2023-03-12T12:50:55.771Z,40.81
2023-03-12T12:53:35.757Z,42.13
2023-03-12T12:56:08.402Z,42.45
2023-03-12T12:58:38.433Z,41.39
2023-03-12T13:01:06.291Z,42.08
2023-03-12T13:03:33.710Z,42.08
2023-03-12T13:06:03.510Z,41.18
2023-03-12T13:08:43.090Z,41.83
2023-03-12T13:11:20.119Z,42.72
2023-03-12T13:14:03.748Z,42.15
2023-03-12T13:16:38.783Z,42.20
2023-03-12T13:19:14.979Z,42.33
2023-03-12T13:21:55.709Z,51.99
2023-03-12T13:24:26.680Z,57.06
2023-03-12T13:27:02.386Z,58.73
2023-03-12T13:29:29.430Z,61.25
2023-03-12T13:31:57.254Z,63.38
2023-03-12T13:34:28.131Z,63.28
2023-03-12T13:37:03.239Z,62.71
2023-03-12T13:39:36.043Z,63.05
2023-03-12T13:42:37.060Z,62.28
2023-03-12T13:45:26.103Z,62.74
2023-03-12T13:47:58.871Z,62.23
2023-03-12T13:50:27.258Z,64.11
2023-03-12T13:53:22.442Z,63.54
2023-03-12T13:56:10.871Z,63.64
2023-03-12T13:58:50.581Z,63.67
2023-03-12T14:01:24.272Z,63.92
2023-03-12T14:03:58.541Z,62.55
2023-03-12T14:06:30.331Z,62.74
2023-03-12T14:09:40.303Z,63.36
2023-03-12T14:12:22.633Z,63.57
2023-03-12T14:15:31.236Z,64.26
2023-03-12T14:18:12.110Z,65.69
2023-03-12T14:20:40.097Z,65.41
2023-03-12T14:23:13.037Z,65.13
2023-03-12T14:25:44.121Z,65.92
2023-03-12T14:28:21.178Z,65.82
2023-03-12T14:31:17.348Z,64.86
2023-03-12T14:33:59.632Z,64.80
2023-03-12T14:36:39.549Z,65.63
2023-03-12T14:39:21.362Z,64.18
2023-03-12T14:42:00.211Z,64.52
2023-03-12T14:44:29.513Z,65.05
2023-03-12T14:47:04.611Z,65.15
2023-03-12T14:49:32.452Z,65.02
2023-03-12T14:51:59.725Z,64.30
2023-03-12T14:54:28.838Z,63.39
2023-03-12T14:56:56.079Z,62.77
2023-03-12T14:59:32.161Z,63.35
2023-03-12T15:02:01.129Z,63.01
2023-03-12T15:04:29.701Z,63.06
2023-03-12T15:06:59.872Z,63.28
2023-03-12T15:09:30.394Z,63.45
2023-03-12T15:12:25.051Z,64.12
2023-03-12T15:14:57.900Z,63.83
2023-03-12T15:17:29.185Z,64.38
2023-03-12T15:19:57.515Z,64.37
2023-03-12T15:22:27.971Z,65.04
2023-03-12T15:24:55.087Z,64.59
2023-03-12T15:27:30.532Z,64.63
2023-03-12T15:29:58.466Z,65.12
2023-03-12T15:32:27.132Z,65.48
2023-03-12T15:34:59.165Z,66.08
2023-03-12T15:37:38.323Z,66.64
2023-03-12T15:40:17.809Z,65.99
2023-03-12T15:42:47.290Z,66.99
2023-03-12T15:45:38.812Z,67.09
2023-03-12T15:48:23.720Z,66.88
2023-03-12T15:50:50.790Z,67.64
2023-03-12T15:53:17.760Z,67.67
2023-03-12T15:56:05.711Z,68.28
2023-03-12T15:59:03.982Z,67.76
2023-03-12T16:01:43.540Z,69.09
2023-03-12T16:04:10.554Z,68.38
2023-03-12T16:06:37.759Z,67.65
2023-03-12T16:09:05.465Z,67.09
2023-03-12T16:11:36.222Z,67.17
2023-03-12T16:14:13.614Z,67.50
2023-03-12T16:16:40.893Z,67.24
2023-03-12T16:19:17.142Z,67.46
2023-03-12T16:21:44.885Z,66.77
2023-03-12T16:24:12.668Z,66.76
2023-03-12T16:26:52.236Z,66.51
2023-03-12T16:29:20.688Z,65.86
2023-03-12T16:31:55.592Z,66.05
2023-03-12T16:34:22.918Z,66.31
2023-03-12T16:36:50.168Z,65.00
2023-03-12T16:39:18.916Z,64.43
2023-03-12T16:41:47.016Z,63.02
2023-03-12T16:44:21.622Z,63.90
2023-03-12T16:46:48.809Z,65.06
2023-03-12T16:49:18.140Z,64.71
2023-03-12T16:51:45.287Z,65.07
2023-03-12T16:54:12.697Z,66.62
2023-03-12T16:56:46.403Z,66.42
2023-03-12T16:59:25.633Z,66.90
2023-03-12T17:01:53.045Z,67.92
2023-03-12T17:04:20.471Z,67.07
2023-03-12T17:06:47.623Z,66.67
2023-03-12T17:09:14.836Z,65.02
2023-03-12T17:11:41.985Z,62.92
2023-03-12T17:14:22.066Z,61.25
2023-03-12T17:16:49.530Z,60.32
2023-03-12T17:19:17.100Z,59.62
2023-03-12T17:21:44.612Z,60.82
2023-03-12T17:24:14.182Z,62.49
2023-03-12T17:26:42.581Z,63.75
2023-03-12T17:29:09.721Z,63.77
2023-03-12T17:31:37.822Z,62.98
2023-03-12T17:34:05.570Z,65.22
2023-03-12T17:36:36.890Z,63.81
2023-03-12T17:39:04.637Z,63.49
2023-03-12T17:41:32.918Z,64.86
2023-03-12T17:44:02.254Z,65.63
2023-03-12T17:46:30.918Z,64.83
2023-03-12T17:48:58.073Z,65.60
2023-03-12T17:51:25.731Z,63.74
2023-03-12T17:53:53.739Z,65.21
2023-03-12T17:56:20.996Z,65.32
2023-03-12T17:58:48.081Z,64.02
2023-03-12T18:01:16.065Z,62.54
2023-03-12T18:03:44.231Z,61.40
2023-03-12T18:06:11.869Z,60.37
2023-03-12T18:08:39.169Z,59.40
2023-03-12T18:11:06.212Z,59.24
2023-03-12T18:13:33.331Z,59.82
2023-03-12T18:16:00.529Z,60.91
2023-03-12T18:18:27.889Z,61.70
2023-03-12T18:20:55.159Z,61.84
2023-03-12T18:23:23.782Z,62.82
2023-03-12T18:25:51.059Z,62.14
2023-03-12T18:28:18.177Z,60.96
2023-03-12T18:30:46.874Z,59.81
2023-03-12T18:33:14.822Z,59.00
2023-03-12T18:35:43.841Z,58.18
2023-03-12T18:38:11.117Z,58.82
2023-03-12T18:40:38.348Z,57.72
2023-03-12T18:43:05.519Z,58.32
2023-03-12T18:45:32.633Z,57.05
2023-03-12T18:47:59.734Z,56.60
2023-03-12T18:50:26.986Z,57.02
2023-03-12T18:52:54.122Z,56.69
2023-03-12T18:55:21.252Z,56.95
2023-03-12T18:57:48.448Z,57.95
2023-03-12T19:00:19.676Z,58.51
2023-03-12T19:02:48.132Z,58.38
2023-03-12T19:05:15.920Z,58.32
2023-03-12T19:07:43.340Z,59.35
2023-03-12T19:10:11.589Z,58.19
2023-03-12T19:12:50.860Z,57.29
2023-03-12T19:15:19.305Z,58.34
2023-03-12T19:17:46.468Z,58.45
2023-03-12T19:20:14.208Z,57.72
2023-03-12T19:22:41.418Z,57.00
2023-03-12T19:25:08.865Z,56.61
2023-03-12T19:27:36.037Z,57.10
2023-03-12T19:30:03.170Z,57.15
2023-03-12T19:32:42.034Z,57.80
2023-03-12T19:35:11.853Z,57.49
2023-03-12T19:37:38.981Z,58.34
2023-03-12T19:40:06.743Z,57.20
2023-03-12T19:42:34.095Z,56.47
2023-03-12T19:45:01.050Z,57.18
2023-03-12T19:47:28.261Z,58.15
2023-03-12T19:49:55.217Z,58.79
2023-03-12T19:52:22.241Z,58.36
2023-03-12T19:55:03.221Z,59.00
2023-03-12T19:57:31.077Z,59.23
2023-03-12T19:59:58.089Z,60.34
2023-03-12T20:02:26.170Z,60.06
2023-03-12T20:04:53.305Z,58.99
2023-03-12T20:07:20.272Z,58.97
2023-03-12T20:09:47.252Z,60.33
2023-03-12T20:12:14.377Z,62.08
2023-03-12T20:14:42.788Z,62.77
2023-03-12T20:17:10.087Z,63.02
2023-03-12T20:19:38.601Z,64.31
2023-03-12T20:22:06.220Z,63.69
2023-03-12T20:24:33.180Z,65.52
2023-03-12T20:27:00.287Z,64.14
2023-03-12T20:29:27.569Z,64.68
2023-03-12T20:31:54.743Z,65.77
2023-03-12T20:34:21.753Z,64.34
2023-03-12T20:36:48.748Z,63.73
2023-03-12T20:39:15.766Z,63.22
2023-03-12T20:41:42.758Z,63.28
2023-03-12T20:44:09.817Z,63.52
2023-03-12T20:46:36.754Z,64.20
2023-03-12T20:49:03.726Z,63.49
2023-03-12T20:51:31.624Z,63.83
2023-03-12T20:53:58.874Z,65.30
2023-03-12T20:56:25.994Z,66.05
2023-03-12T20:58:53.879Z,66.54
2023-03-12T21:01:20.897Z,66.20
2023-03-12T21:03:47.931Z,66.50
2023-03-12T21:06:14.970Z,64.88
2023-03-12T21:08:42.002Z,65.42
2023-03-12T21:11:10.046Z,65.03
2023-03-12T21:13:37.178Z,66.67
2023-03-12T21:16:08.907Z,68.17
2023-03-12T21:18:35.897Z,67.56
2023-03-12T21:21:04.889Z,67.40
2023-03-12T21:23:33.004Z,68.22
2023-03-12T21:26:02.814Z,67.31
2023-03-12T21:28:29.809Z,66.33
2023-03-12T21:31:05.444Z,67.42
2023-03-12T21:33:32.496Z,69.90
2023-03-12T21:35:59.555Z,70.88
2023-03-12T21:38:26.621Z,70.22
2023-03-12T21:40:54.408Z,69.80
2023-03-12T21:43:21.407Z,69.70
2023-03-12T21:45:48.367Z,70.19
2023-03-12T21:48:15.457Z,70.36
2023-03-12T21:50:42.422Z,70.59
2023-03-12T21:53:22.662Z,69.69
2023-03-12T21:55:57.684Z,69.54
2023-03-12T21:58:24.768Z,69.17
2023-03-12T22:00:52.085Z,69.76
2023-03-12T22:03:19.094Z,69.97
2023-03-12T22:05:52.130Z,69.69
2023-03-12T22:08:19.180Z,70.58
2023-03-12T22:10:46.150Z,71.90
2023-03-12T22:13:13.135Z,71.97
2023-03-12T22:15:40.116Z,71.93
2023-03-12T22:18:07.190Z,72.16
2023-03-12T22:20:34.481Z,72.93
2023-03-12T22:23:01.500Z,73.45
2023-03-12T22:25:28.586Z,73.03
2023-03-12T22:27:55.623Z,73.66
2023-03-12T22:30:22.698Z,73.44
2023-03-12T22:32:49.691Z,73.38
2023-03-12T22:35:16.812Z,73.48
2023-03-12T22:37:45.364Z,73.38
2023-03-12T22:40:12.848Z,73.02
2023-03-12T22:42:41.185Z,72.81
2023-03-12T22:45:08.812Z,73.18
2023-03-12T22:47:35.784Z,73.41
2023-03-12T22:50:02.794Z,73.38
2023-03-12T22:52:29.841Z,72.93
2023-03-12T22:54:56.867Z,71.97
2023-03-12T22:57:23.901Z,72.18
2023-03-12T22:59:50.847Z,72.73
2023-03-12T23:02:17.837Z,72.95
2023-03-12T23:04:44.944Z,72.14
2023-03-12T23:07:14.808Z,71.95
2023-03-12T23:09:43.505Z,70.87
2023-03-12T23:12:10.492Z,71.08
2023-03-12T23:14:37.496Z,70.56
2023-03-12T23:17:04.532Z,71.18
2023-03-12T23:19:34.849Z,75.07
2023-03-12T23:22:02.319Z,78.29
2023-03-12T23:24:32.295Z,78.63
2023-03-12T23:26:59.310Z,77.74
2023-03-12T23:29:26.668Z,77.18
2023-03-12T23:31:53.643Z,75.34
2023-03-12T23:34:20.776Z,74.54
2023-03-12T23:36:47.869Z,75.04
2023-03-12T23:39:14.962Z,74.68
2023-03-12T23:41:41.936Z,74.48
2023-03-12T23:44:08.916Z,72.61
2023-03-12T23:46:35.953Z,70.34
2023-03-12T23:49:02.952Z,69.85
2023-03-12T23:51:32.389Z,69.76
2023-03-12T23:54:05.488Z,68.57
2023-03-12T23:56:35.457Z,69.12
2023-03-12T23:59:03.363Z,69.61
